Time;durP1;ratioP1;P1;durP2;ratioP2;P2;SDS_P1;SDS_P2;PMS_P1;PMS_P2;Temp;Humidity;BMP_temperature;BMP_pressure;BME280_temperature;BME280_humidity;BME280_pressure;Samples;Min_cycle;Max_cycle;Signal;HPM_P1;HPM_P2
2023/01/11 00:01:51;;;;;;;;;;;;;;;-13.61;54.45;101855.28;4965243;28;19952;-61
2023/01/11 00:04:18;;;;;;;;;;;;;;;-13.41;54.59;101885.97;4982897;28;19930;-62
2023/01/11 00:06:44;;;;;;;;;;;;;;;-13.43;54.19;101878.13;4965285;28;19962;-60
2023/01/11 00:09:10;;;;;;;;;;;;;;;-13.40;54.37;101869.25;4966874;28;19961;-60
2023/01/11 00:11:35;;;;;;;;;;;;;;;-13.40;54.47;101877.97;4964885;28;19930;-65
2023/01/11 00:14:01;;;;;;;;;;;;;;;-13.42;54.32;101876.34;4968120;28;20420;-64
2023/01/11 00:16:28;;;;;;;;;;;;;;;-13.40;54.31;101866.59;4971256;28;19929;-64
2023/01/11 00:18:54;;;;;;;;;;;;;;;-13.39;54.63;101877.06;4967439;28;20060;-64
2023/01/11 00:21:21;;;;;;;;;;;;;;;-13.36;54.23;101875.19;4965452;28;19970;-59
2023/01/11 00:23:48;;;;;;;;;;;;;;;-13.39;53.74;101868.31;4980440;28;19936;-61
2023/01/11 00:26:13;;;;;;;;;;;;;;;-13.45;54.29;101861.56;4981612;28;19937;-57
2023/01/11 00:28:39;;;;;;;;;;;;;;;-13.45;53.84;101866.84;4977903;28;20286;-60
2023/01/11 00:31:05;;;;;;;;;;;;;;;-13.43;54.37;101866.75;4966411;28;20306;-59
2023/01/11 00:33:32;;;;;;;;;;;;;;;-13.41;54.33;101851.75;4967284;28;20377;-64
2023/01/11 00:35:58;;;;;;;;;;;;;;;-13.38;54.33;101848.97;4968064;28;19936;-64
2023/01/11 00:49:23;;;;;;;;;;;;;;;-13.32;54.23;101861.00;4969452;28;19937;-64
2023/01/11 00:51:49;;;;;;;;;;;;;;;-13.31;54.67;101858.28;4967019;28;19930;-64
2023/01/11 00:54:15;;;;;;;;;;;;;;;-13.30;54.38;101878.41;4965089;28;19936;-64
2023/01/11 00:56:41;;;;;;;;;;;;;;;-13.28;53.85;101867.84;4963703;28;20313;-64
2023/01/11 00:59:07;;;;;;;;;;;;;;;-13.27;53.92;101869.53;4965460;28;19930;-64
2023/01/11 01:01:32;;;;;;;;;;;;;;;-13.22;53.78;101864.06;4968156;28;19936;-65
2023/01/11 01:03:59;;;;;;;;;;;;;;;-13.16;54.03;101866.41;4966666;28;19934;-65
2023/01/11 01:06:26;;;;;;;;;;;;;;;-13.14;54.28;101854.03;4962514;28;19930;-65
2023/01/11 01:08:51;;;;;;;;;;;;;;;-13.09;53.36;101859.97;4965278;28;19930;-64
2023/01/11 01:11:17;;;;;;;;;;;;;;;-13.27;53.65;101817.75;4968357;28;20262;-70
2023/01/11 01:16:27;;;;;;;;;;;;;;;-13.05;53.66;101844.84;4967689;28;19936;-65
2023/01/11 01:18:55;;;;;;;;;;;;;;;-13.07;53.77;101844.94;4966036;28;20017;-64
2023/01/11 01:21:22;;;;;;;;;;;;;;;-13.12;54.10;101845.16;4966127;28;20033;-65
2023/01/11 01:23:50;;;;;;;;;;;;;;;-13.14;54.21;101849.63;4966535;28;20464;-65
2023/01/11 01:26:15;;;;;;;;;;;;;;;-13.07;53.38;101866.00;4965807;28;19936;-65
2023/01/11 01:28:41;;;;;;;;;;;;;;;-13.08;53.25;101852.91;4965798;28;20181;-64
2023/01/11 01:31:07;;;;;;;;;;;;;;;-13.04;53.77;101846.56;4974271;28;20037;-64
2023/01/11 01:33:33;;;;;;;;;;;;;;;-13.01;53.05;101844.63;4970044;28;19961;-64
2023/01/11 01:35:59;;;;;;;;;;;;;;;-13.02;52.72;101848.19;4967316;28;19934;-64
2023/01/11 01:38:25;;;;;;;;;;;;;;;-13.04;52.66;101846.56;4965769;28;19953;-65
2023/01/11 01:40:52;;;;;;;;;;;;;;;-13.07;52.86;101852.84;4948090;28;19992;-64
2023/01/11 01:43:18;;;;;;;;;;;;;;;-13.02;54.13;101871.06;4967244;28;20040;-64
2023/01/11 01:45:44;;;;;;;;;;;;;;;-13.05;55.13;101845.72;4966381;28;19969;-65
2023/01/11 01:48:11;;;;;;;;;;;;;;;-13.06;54.59;101843.13;4963512;28;19930;-65
2023/01/11 01:50:41;;;;;;;;;;;;;;;-13.07;54.68;101846.69;4965688;28;19929;-65
2023/01/11 01:53:09;;;;;;;;;;;;;;;-13.07;53.64;101842.31;4966887;28;19930;-65
2023/01/11 01:55:37;;;;;;;;;;;;;;;-13.09;53.73;101835.38;4965736;28;19930;-65
2023/01/11 01:58:06;;;;;;;;;;;;;;;-13.05;53.76;101844.84;4965644;28;20607;-63
2023/01/11 02:00:32;;;;;;;;;;;;;;;-13.08;53.29;101843.22;4964705;28;20173;-64
2023/01/11 02:02:58;;;;;;;;;;;;;;;-13.06;53.43;101832.59;4947827;28;19961;-64
2023/01/11 02:05:24;;;;;;;;;;;;;;;-13.02;53.40;101847.38;4963549;28;19937;-70
2023/01/11 02:07:50;;;;;;;;;;;;;;;-13.02;53.05;101828.94;4964557;28;19930;-64
2023/01/11 02:10:18;;;;;;;;;;;;;;;-13.01;52.84;101833.25;4966300;28;19934;-63
2023/01/11 02:12:45;;;;;;;;;;;;;;;-13.17;52.97;101809.41;4968026;28;20329;-64
2023/01/11 02:15:13;;;;;;;;;;;;;;;-13.00;52.82;101834.97;4964987;28;19930;-64
2023/01/11 02:17:39;;;;;;;;;;;;;;;-13.03;52.01;101843.00;4963110;28;19934;-64
2023/01/11 02:20:12;;;;;;;;;;;;;;;-13.07;52.27;101828.25;4965746;28;20033;-64
2023/01/11 02:23:00;;;;;;;;;;;;;;;-13.07;52.43;101833.53;4962689;28;19930;-64
2023/01/11 02:25:44;;;;;;;;;;;;;;;-13.04;52.37;101826.34;4967197;28;19936;-59
2023/01/11 02:28:14;;;;;;;;;;;;;;;-13.00;52.70;101813.91;4962687;28;19937;-60
2023/01/11 02:30:45;;;;;;;;;;;;;;;-12.98;52.96;101825.22;4964422;28;19930;-60
2023/01/11 02:33:14;;;;;;;;;;;;;;;-13.03;52.74;101838.59;4964804;28;19937;-60
2023/01/11 02:35:44;;;;;;;;;;;;;;;-13.08;52.96;101824.78;4947269;28;19930;-61
2023/01/11 02:38:13;;;;;;;;;;;;;;;-13.08;53.10;101829.19;4949762;28;19935;-60
2023/01/11 02:40:46;;;;;;;;;;;;;;;-13.06;52.74;101814.16;4966346;28;19935;-60
2023/01/11 02:46:07;;;;;;;;;;;;;;;-13.12;53.24;101821.44;4967770;28;20425;-60
2023/01/11 02:48:38;;;;;;;;;;;;;;;-13.06;52.76;101816.78;4981787;28;19930;-60
2023/01/11 02:51:07;;;;;;;;;;;;;;;-13.10;52.57;101810.84;4986648;28;19930;-60
2023/01/11 02:53:35;;;;;;;;;;;;;;;-13.05;53.08;101815.88;4969227;28;19937;-65
2023/01/11 02:56:04;;;;;;;;;;;;;;;-13.07;52.85;101805.44;4984845;28;19937;-64
2023/01/11 02:58:34;;;;;;;;;;;;;;;-13.04;52.85;101807.03;4984857;28;19930;-64
2023/01/11 03:01:00;;;;;;;;;;;;;;;-13.01;52.93;101799.03;4969850;28;19930;-64
2023/01/11 03:03:28;;;;;;;;;;;;;;;-12.97;52.92;101793.50;4985533;28;19977;-64
2023/01/11 03:05:56;;;;;;;;;;;;;;;-12.91;53.02;101796.81;4961387;28;20416;-64
2023/01/11 03:08:49;;;;;;;;;;;;;;;-12.94;52.30;101795.16;4969217;28;20314;-64
2023/01/11 03:12:50;;;;;;;;;;;;;;;-13.03;52.48;101806.13;4932705;28;19930;-65
2023/01/11 03:14:15;;;;;;;;;;;;;;;-13.11;52.65;101799.44;4967582;28;20460;-64
2023/01/11 03:16:46;;;;;;;;;;;;;;;-13.13;52.73;101795.16;4966674;28;19930;-64
2023/01/11 03:19:18;;;;;;;;;;;;;;;-13.09;52.99;101791.47;4968059;28;20441;-58
2023/01/11 03:21:47;;;;;;;;;;;;;;;-13.10;52.87;101787.13;4983677;28;19930;-59
2023/01/11 03:24:19;;;;;;;;;;;;;;;-13.09;54.20;101790.59;4952518;28;20037;-60
2023/01/11 03:26:51;;;;;;;;;;;;;;;-13.12;53.50;101786.31;4979223;28;19938;-59
2023/01/11 03:29:21;;;;;;;;;;;;;;;-13.12;53.29;101788.97;4948747;28;20131;-61
2023/01/11 03:31:50;;;;;;;;;;;;;;;-13.12;53.03;101784.56;4948398;28;19930;-60
2023/01/11 03:34:17;;;;;;;;;;;;;;;-13.09;52.59;101772.16;4950432;29;20468;-59
2023/01/11 03:36:46;;;;;;;;;;;;;;;-13.09;52.66;101759.00;4952630;29;19954;-64
2023/01/11 03:39:15;;;;;;;;;;;;;;;-13.04;52.53;101770.16;4980220;28;19937;-64
2023/01/11 03:41:42;;;;;;;;;;;;;;;-13.06;53.00;101780.78;4948049;29;20340;-65
2023/01/11 03:44:10;;;;;;;;;;;;;;;-13.09;52.79;101774.81;4948064;29;20025;-64
2023/01/11 03:46:38;;;;;;;;;;;;;;;-13.14;53.10;101778.53;4947996;28;19930;-64
2023/01/11 03:49:06;;;;;;;;;;;;;;;-13.12;53.14;101781.06;4959433;28;19930;-64
2023/01/11 03:51:33;;;;;;;;;;;;;;;-13.10;53.62;101773.97;4966431;28;19930;-64
2023/01/11 03:54:02;;;;;;;;;;;;;;;-13.08;52.95;101787.91;4969670;28;20007;-64
2023/01/11 03:56:29;;;;;;;;;;;;;;;-13.08;53.20;101801.09;4968311;28;19965;-64
2023/01/11 03:58:58;;;;;;;;;;;;;;;-13.14;53.20;101786.41;4964972;28;19941;-64
2023/01/11 04:01:24;;;;;;;;;;;;;;;-13.09;53.26;101786.22;4966394;28;19930;-60
2023/01/11 04:03:51;;;;;;;;;;;;;;;-13.09;53.14;101786.22;4979467;28;19985;-60
2023/01/11 04:06:17;;;;;;;;;;;;;;;-13.08;52.79;101779.16;4970626;28;20040;-61
2023/01/11 04:08:43;;;;;;;;;;;;;;;-13.04;52.54;101778.94;4967262;28;19973;-59
2023/01/11 04:11:08;;;;;;;;;;;;;;;-13.05;52.50;101776.34;4970448;28;20023;-62
2023/01/11 04:13:34;;;;;;;;;;;;;;;-13.07;52.59;101760.66;4967826;28;20321;-59
2023/01/11 04:16:00;;;;;;;;;;;;;;;-13.08;52.64;101764.22;4967301;28;19930;-61
2023/01/11 04:18:26;;;;;;;;;;;;;;;-13.05;52.73;101765.81;4966656;28;20480;-59
2023/01/11 04:20:53;;;;;;;;;;;;;;;-13.05;52.91;101763.19;4986755;28;20024;-61
2023/01/11 04:23:18;;;;;;;;;;;;;;;-13.03;52.50;101753.44;4969130;28;19988;-59
2023/01/11 04:25:45;;;;;;;;;;;;;;;-13.07;52.80;101755.38;4968164;28;19938;-62
2023/01/11 04:28:11;;;;;;;;;;;;;;;-13.11;52.24;101759.06;4966914;28;19930;-59
2023/01/11 04:30:37;;;;;;;;;;;;;;;-13.16;52.79;101766.34;4967663;28;19981;-64
2023/01/11 04:33:03;;;;;;;;;;;;;;;-13.14;53.26;101767.13;4968670;28;19930;-64
2023/01/11 04:35:28;;;;;;;;;;;;;;;-13.10;52.42;101776.59;4967974;28;19957;-65
2023/01/11 04:37:56;;;;;;;;;;;;;;;-13.09;52.24;101757.25;4964874;28;19930;-64
2023/01/11 04:40:22;;;;;;;;;;;;;;;-13.10;51.90;101771.34;4968864;28;20366;-64
2023/01/11 04:42:47;;;;;;;;;;;;;;;-13.11;51.97;101761.69;4966352;28;20001;-64
2023/01/11 04:45:13;;;;;;;;;;;;;;;-13.15;52.50;101755.75;4963480;28;20033;-65
2023/01/11 04:47:39;;;;;;;;;;;;;;;-13.12;52.66;101746.81;4965357;28;20274;-63
2023/01/11 04:50:05;;;;;;;;;;;;;;;-13.07;52.63;101741.34;4965192;28;19937;-65
2023/01/11 04:52:31;;;;;;;;;;;;;;;-13.04;52.08;101747.31;4974963;28;19977;-64
2023/01/11 04:54:58;;;;;;;;;;;;;;;-13.04;52.22;101754.34;4946373;29;20330;-65
2023/01/11 04:57:24;;;;;;;;;;;;;;;-13.08;52.34;101750.16;4960395;28;20045;-65
2023/01/11 04:59:50;;;;;;;;;;;;;;;-13.14;52.75;101751.31;4949528;28;19931;-64
2023/01/11 05:02:16;;;;;;;;;;;;;;;-13.13;53.07;101745.97;4950628;28;20358;-64
2023/01/11 05:04:42;;;;;;;;;;;;;;;-13.08;52.57;101745.78;4967874;28;19931;-64
2023/01/11 05:07:08;;;;;;;;;;;;;;;-13.09;52.50;101764.25;4968154;28;20032;-64
2023/01/11 05:09:34;;;;;;;;;;;;;;;-13.13;52.57;101750.38;4967412;28;20290;-65
2023/01/11 05:12:01;;;;;;;;;;;;;;;-13.16;52.55;101761.06;4966025;28;19930;-65
2023/01/11 05:14:26;;;;;;;;;;;;;;;-13.21;53.03;101737.56;4967250;28;19934;-64
2023/01/11 05:16:52;;;;;;;;;;;;;;;-13.20;53.29;101735.81;4967887;28;19930;-64
2023/01/11 05:19:18;;;;;;;;;;;;;;;-13.17;53.16;101730.41;4967606;28;20040;-64
2023/01/11 05:21:44;;;;;;;;;;;;;;;-13.13;53.19;101727.53;4965645;28;19936;-64
2023/01/11 05:24:11;;;;;;;;;;;;;;;-13.12;53.09;101725.75;4968960;28;19930;-64
2023/01/11 05:26:38;;;;;;;;;;;;;;;-13.14;53.27;101725.84;4965376;28;20364;-65
2023/01/11 05:29:06;;;;;;;;;;;;;;;-13.17;53.54;101731.25;4965751;28;20001;-65
2023/01/11 05:31:33;;;;;;;;;;;;;;;-13.18;53.61;101736.59;4965838;28;19945;-65
2023/01/11 05:33:59;;;;;;;;;;;;;;;-13.21;53.66;101724.41;4963366;28;20454;-59
2023/01/11 05:36:26;;;;;;;;;;;;;;;-13.13;53.59;101745.13;4956815;28;20429;-60
2023/01/11 05:38:52;;;;;;;;;;;;;;;-13.12;53.47;101731.88;4949654;28;19930;-60
2023/01/11 05:41:18;;;;;;;;;;;;;;;-13.13;54.01;101729.31;4962417;28;19930;-60
2023/01/11 05:46:32;;;;;;;;;;;;;;;-13.15;53.69;101731.16;4946344;28;19936;-58
2023/01/11 05:48:58;;;;;;;;;;;;;;;-13.16;54.15;101725.06;4927984;28;19950;-58
2023/01/11 05:51:24;;;;;;;;;;;;;;;-13.14;53.85;101749.53;4956564;28;19934;-58
2023/01/11 05:53:49;;;;;;;;;;;;;;;-13.09;54.29;101753.72;4963879;28;19930;-57
2023/01/11 05:56:15;;;;;;;;;;;;;;;-13.06;54.14;101737.78;4973509;28;19941;-59
2023/01/11 05:58:41;;;;;;;;;;;;;;;-13.02;54.17;101745.47;4968084;28;19937;-60
2023/01/11 06:01:07;;;;;;;;;;;;;;;-13.02;54.12;101740.19;4973512;28;19993;-58
2023/01/11 06:03:34;;;;;;;;;;;;;;;-13.01;54.96;101741.06;4968028;28;19930;-65
2023/01/11 06:06:00;;;;;;;;;;;;;;;-12.99;54.65;101739.22;4965684;28;19961;-65
2023/01/11 06:08:26;;;;;;;;;;;;;;;-13.01;54.58;101725.25;4964377;28;19958;-65
2023/01/11 06:10:52;;;;;;;;;;;;;;;-12.99;54.71;101724.25;4964356;28;19930;-66
2023/01/11 06:13:27;;;;;;;;;;;;;;;-12.95;54.56;101722.31;4973381;28;19930;-65
2023/01/11 06:15:53;;;;;;;;;;;;;;;-12.90;54.50;101732.63;4975521;28;19930;-65
2023/01/11 06:18:18;;;;;;;;;;;;;;;-12.86;54.51;101740.31;4970001;28;19945;-65
2023/01/11 06:20:49;;;;;;;;;;;;;;;-12.82;54.40;101755.03;4948932;28;19940;-58
2023/01/11 06:23:16;;;;;;;;;;;;;;;-12.78;54.40;101725.91;4968646;28;20213;-65
2023/01/11 06:25:42;;;;;;;;;;;;;;;-12.75;54.12;101738.94;4974780;28;19930;-65
2023/01/11 06:28:08;;;;;;;;;;;;;;;-12.76;54.53;101729.31;4967247;28;20004;-59
2023/01/11 06:30:34;;;;;;;;;;;;;;;-12.75;54.34;101733.66;4975029;28;19949;-60
2023/01/11 06:33:06;;;;;;;;;;;;;;;-12.73;54.31;101734.44;4975160;28;20349;-60
2023/01/11 06:35:32;;;;;;;;;;;;;;;-12.79;54.28;101737.38;4975240;28;19929;-65
2023/01/11 06:37:59;;;;;;;;;;;;;;;-12.81;54.82;101737.44;4975752;28;19936;-64
2023/01/11 06:40:25;;;;;;;;;;;;;;;-12.79;54.58;101732.09;4974809;28;19930;-65
2023/01/11 06:42:51;;;;;;;;;;;;;;;-12.73;54.56;101721.25;4973636;28;19936;-59
2023/01/11 06:45:16;;;;;;;;;;;;;;;-12.69;54.57;101721.03;4974383;28;19962;-60
2023/01/11 06:47:42;;;;;;;;;;;;;;;-12.60;54.88;101724.16;4974100;28;19930;-59
2023/01/11 06:50:08;;;;;;;;;;;;;;;-12.55;54.25;101712.44;4987475;28;19937;-59
2023/01/11 06:52:34;;;;;;;;;;;;;;;-12.47;53.99;101716.47;4971805;28;19930;-59
2023/01/11 06:55:01;;;;;;;;;;;;;;;-12.45;54.09;101704.91;4973906;28;20464;-61
2023/01/11 06:57:29;;;;;;;;;;;;;;;-12.38;53.82;101712.50;4974500;28;19954;-59
2023/01/11 06:59:54;;;;;;;;;;;;;;;-12.32;53.83;101707.78;4973621;28;19977;-60
2023/01/11 07:02:20;;;;;;;;;;;;;;;-12.23;53.90;101716.16;4971202;28;19977;-60
2023/01/11 07:04:46;;;;;;;;;;;;;;;-12.19;54.17;101707.97;4955204;28;19930;-60
2023/01/11 07:07:11;;;;;;;;;;;;;;;-12.09;53.92;101705.75;4974151;28;20302;-61
2023/01/11 07:09:37;;;;;;;;;;;;;;;-12.06;53.82;101696.78;4972289;28;19965;-65
2023/01/11 07:12:04;;;;;;;;;;;;;;;-12.04;53.75;101694.94;4973874;28;19930;-65
2023/01/11 07:14:30;;;;;;;;;;;;;;;-12.00;53.66;101699.09;4970260;28;19993;-64
2023/01/11 07:16:56;;;;;;;;;;;;;;;-11.97;54.21;101704.22;4974338;28;19934;-65
2023/01/11 07:19:22;;;;;;;;;;;;;;;-11.90;54.01;101707.38;4973003;28;20333;-66
2023/01/11 07:21:48;;;;;;;;;;;;;;;-11.87;54.05;101702.75;4975729;28;20348;-65
2023/01/11 07:24:14;;;;;;;;;;;;;;;-11.98;53.99;101689.31;4970457;28;19930;-65
2023/01/11 07:26:40;;;;;;;;;;;;;;;-11.82;53.86;101710.44;4972366;28;19936;-59
2023/01/11 07:29:08;;;;;;;;;;;;;;;-11.78;53.65;101721.69;4972681;28;19937;-56
2023/01/11 07:31:34;;;;;;;;;;;;;;;-11.80;53.48;101720.94;4972544;28;19930;-59
2023/01/11 07:34:00;;;;;;;;;;;;;;;-11.76;54.19;101725.09;4972166;28;19977;-65
2023/01/11 07:36:25;;;;;;;;;;;;;;;-11.72;53.85;101710.78;4969716;28;19934;-60
2023/01/11 07:38:51;;;;;;;;;;;;;;;-11.73;54.02;101720.53;4965581;28;19930;-60
2023/01/11 07:44:14;;;;;;;;;;;;;;;-11.73;54.21;101709.97;4967475;28;19977;-65
2023/01/11 07:46:42;;;;;;;;;;;;;;;-11.69;54.31;101708.84;4947483;28;19930;-59
2023/01/11 07:49:08;;;;;;;;;;;;;;;-11.65;54.11;101709.53;4965021;28;19930;-65
2023/01/11 07:51:34;;;;;;;;;;;;;;;-11.60;54.07;101710.13;4967134;28;19930;-65
2023/01/11 07:54:01;;;;;;;;;;;;;;;-11.49;54.36;101706.06;4966018;28;19934;-65
2023/01/11 07:56:27;;;;;;;;;;;;;;;-11.51;53.75;101708.78;4966061;28;19934;-65
2023/01/11 07:58:52;;;;;;;;;;;;;;;-11.64;53.94;101700.69;4966267;28;19930;-66
2023/01/11 08:01:20;;;;;;;;;;;;;;;-11.69;54.23;101714.13;4967606;28;19984;-60
2023/01/11 08:03:45;;;;;;;;;;;;;;;-11.70;54.60;101699.22;4970351;28;19937;-59
2023/01/11 08:06:13;;;;;;;;;;;;;;;-11.70;54.54;101698.41;4969312;28;19930;-60
2023/01/11 08:08:39;;;;;;;;;;;;;;;-11.66;54.57;101710.47;4952654;28;19930;-66
2023/01/11 08:16:35;;;;;;;;;;;;;;;-11.58;54.09;101702.16;4983447;28;19930;-59
2023/01/11 08:19:00;;;;;;;;;;;;;;;-11.60;54.25;101696.94;4969411;28;20297;-60
2023/01/11 08:21:26;;;;;;;;;;;;;;;-11.54;54.17;101708.97;4968184;28;19937;-65
2023/01/11 08:23:53;;;;;;;;;;;;;;;-11.51;54.22;101713.22;4967478;28;19937;-60
2023/01/11 08:26:19;;;;;;;;;;;;;;;-11.49;53.96;101700.78;4967926;28;19930;-65
2023/01/11 08:28:45;;;;;;;;;;;;;;;-11.50;54.16;101684.06;4963972;28;20046;-65
2023/01/11 08:31:11;;;;;;;;;;;;;;;-11.46;54.38;101695.34;4969297;28;19945;-66
2023/01/11 08:33:38;;;;;;;;;;;;;;;-11.52;54.01;101716.81;4968606;28;19934;-59
2023/01/11 08:36:05;;;;;;;;;;;;;;;-11.53;54.16;101681.63;4967639;28;19930;-60
2023/01/11 08:38:30;;;;;;;;;;;;;;;-11.42;54.06;101681.00;4966022;28;20427;-58
2023/01/11 08:40:56;;;;;;;;;;;;;;;-11.35;53.82;101685.03;4948034;28;19934;-59
2023/01/11 08:43:22;;;;;;;;;;;;;;;-11.30;53.79;101675.06;4951089;28;19930;-60
2023/01/11 08:45:56;;;;;;;;;;;;;;;-11.27;53.20;101679.31;4969687;28;19938;-59
2023/01/11 08:48:34;;;;;;;;;;;;;;;-11.22;52.95;101666.69;4950617;28;19930;-60
2023/01/11 08:51:01;;;;;;;;;;;;;;;-11.17;52.95;101677.00;4966628;28;19930;-59
2023/01/11 08:53:26;;;;;;;;;;;;;;;-11.09;52.63;101660.72;4965323;28;19930;-60
2023/01/11 08:55:52;;;;;;;;;;;;;;;-11.03;52.27;101663.00;4966533;28;19930;-65
2023/01/11 08:58:19;;;;;;;;;;;;;;;-10.94;51.82;101648.41;4964437;28;19993;-65
2023/01/11 09:00:45;;;;;;;;;;;;;;;-11.00;51.68;101645.19;4980299;28;20396;-66
2023/01/11 09:03:12;;;;;;;;;;;;;;;-10.95;51.97;101663.41;4968646;28;20032;-65
2023/01/11 09:05:37;;;;;;;;;;;;;;;-10.96;51.75;101651.16;4967188;28;19930;-65
2023/01/11 09:08:05;;;;;;;;;;;;;;;-10.98;51.63;101658.31;4966300;28;20498;-58
2023/01/11 09:10:31;;;;;;;;;;;;;;;-10.88;51.75;101671.84;4965988;28;19985;-60
2023/01/11 09:12:57;;;;;;;;;;;;;;;-10.82;51.56;101658.25;4967413;28;20028;-60
2023/01/11 09:15:24;;;;;;;;;;;;;;;-10.96;51.83;101664.38;4967241;28;20373;-60
2023/01/11 09:17:50;;;;;;;;;;;;;;;-10.83;51.58;101680.34;4983511;28;20692;-60
2023/01/11 09:20:16;;;;;;;;;;;;;;;-10.86;51.70;101668.16;4964849;28;19940;-65
2023/01/11 09:22:44;;;;;;;;;;;;;;;-10.87;51.93;101673.56;4966797;28;20037;-65
2023/01/11 09:25:11;;;;;;;;;;;;;;;-11.06;52.13;101619.13;4966829;28;19957;-65
2023/01/11 09:27:41;;;;;;;;;;;;;;;-10.90;52.38;101656.06;4966469;28;19941;-65
2023/01/11 09:30:08;;;;;;;;;;;;;;;-10.81;52.73;101645.91;4962718;28;19930;-65
2023/01/11 09:32:34;;;;;;;;;;;;;;;-10.76;52.28;101642.06;4967831;28;19984;-59
2023/01/11 09:35:00;;;;;;;;;;;;;;;-10.73;51.36;101643.66;4967662;28;19934;-61
2023/01/11 09:37:26;;;;;;;;;;;;;;;-10.77;51.86;101679.16;4967278;28;20004;-60
2023/01/11 09:39:52;;;;;;;;;;;;;;;-10.89;52.18;101631.34;4965757;28;19957;-61
2023/01/11 09:42:36;;;;;;;;;;;;;;;-10.95;52.57;101626.41;4982726;28;19968;-59
2023/01/11 09:45:06;;;;;;;;;;;;;;;-10.90;52.92;101637.56;4965099;28;19990;-59
2023/01/11 09:47:39;;;;;;;;;;;;;;;-10.90;53.07;101618.22;4967358;28;19937;-65
2023/01/11 09:50:10;;;;;;;;;;;;;;;-10.99;53.09;101625.75;4966110;28;19953;-65
2023/01/11 09:52:39;;;;;;;;;;;;;;;-11.02;53.54;101619.78;4981508;28;20453;-65
2023/01/11 09:55:10;;;;;;;;;;;;;;;-10.97;53.83;101597.44;4967416;28;19930;-66
2023/01/11 09:57:44;;;;;;;;;;;;;;;-10.99;53.54;101601.97;4981858;28;19981;-65
2023/01/11 10:00:15;;;;;;;;;;;;;;;-11.00;54.25;101581.75;4967982;28;19984;-65
2023/01/11 10:02:52;;;;;;;;;;;;;;;-10.93;54.57;101586.66;4968902;28;19934;-65
2023/01/11 10:05:34;;;;;;;;;;;;;;;-10.86;54.30;101574.81;4965796;28;20461;-66
2023/01/11 10:08:09;;;;;;;;;;;;;;;-10.80;54.48;101558.56;4964613;28;20287;-65
2023/01/11 10:10:46;;;;;;;;;;;;;;;-10.81;54.21;101591.22;4962713;28;20480;-65
2023/01/11 10:13:21;;;;;;;;;;;;;;;-10.76;54.49;101570.69;4964370;28;19992;-65
2023/01/11 10:15:52;;;;;;;;;;;;;;;-10.68;54.42;101560.47;4967329;28;19972;-65
2023/01/11 10:18:28;;;;;;;;;;;;;;;-10.64;54.18;101561.16;4965918;28;19933;-60
2023/01/11 10:20:55;;;;;;;;;;;;;;;-10.61;54.18;101581.28;4962236;28;20001;-60
2023/01/11 10:23:24;;;;;;;;;;;;;;;-10.60;54.54;101561.81;4979224;28;20495;-61
2023/01/11 10:25:54;;;;;;;;;;;;;;;-10.55;54.26;101575.59;4964860;28;19941;-60
2023/01/11 10:28:27;;;;;;;;;;;;;;;-10.50;54.55;101562.09;4965604;28;19930;-59
2023/01/11 10:41:51;;;;;;;;;;;;;;;-10.38;54.84;101544.59;4963378;28;19930;-61
2023/01/11 10:44:25;;;;;;;;;;;;;;;-10.47;54.69;101553.97;4966909;28;19937;-60
2023/01/11 10:46:52;;;;;;;;;;;;;;;-10.55;54.77;101543.88;4968405;28;20433;-62
2023/01/11 10:49:28;;;;;;;;;;;;;;;-10.69;55.13;101539.44;4968159;28;20357;-60
2023/01/11 10:51:57;;;;;;;;;;;;;;;-10.74;55.31;101544.13;4983392;28;19955;-61
2023/01/11 10:54:28;;;;;;;;;;;;;;;-10.72;54.84;101537.81;4982461;28;19930;-60
2023/01/11 10:57:00;;;;;;;;;;;;;;;-10.70;55.31;101527.13;4965384;28;20016;-62
2023/01/11 10:59:35;;;;;;;;;;;;;;;-10.68;55.64;101520.81;4967839;28;19931;-61
2023/01/11 11:02:04;;;;;;;;;;;;;;;-10.66;55.22;101536.59;4982488;28;19936;-61
2023/01/11 11:04:54;;;;;;;;;;;;;;;-10.66;55.63;101511.94;4976676;28;19941;-60
2023/01/11 11:07:23;;;;;;;;;;;;;;;-10.65;55.75;101511.00;4956721;28;19961;-61
2023/01/11 11:09:53;;;;;;;;;;;;;;;-10.68;55.68;101541.13;4967059;28;19980;-60
2023/01/11 11:12:22;;;;;;;;;;;;;;;-10.72;55.94;101536.94;4969355;28;19937;-61
2023/01/11 11:14:56;;;;;;;;;;;;;;;-10.76;56.62;101538.94;4969408;28;19930;-61
2023/01/11 11:17:24;;;;;;;;;;;;;;;-10.76;56.32;101527.50;4968477;28;19930;-61
2023/01/11 11:19:50;;;;;;;;;;;;;;;-10.69;56.65;101520.94;4969802;28;19969;-62
2023/01/11 11:22:15;;;;;;;;;;;;;;;-10.70;56.02;101522.72;4963122;28;19930;-61
2023/01/11 11:24:43;;;;;;;;;;;;;;;-10.69;56.22;101508.53;4971678;28;20533;-60
2023/01/11 11:27:20;;;;;;;;;;;;;;;-10.61;56.20;101494.84;4967117;28;19930;-61
2023/01/11 11:29:48;;;;;;;;;;;;;;;-10.61;55.86;101510.72;4967723;28;19977;-61
2023/01/11 11:32:17;;;;;;;;;;;;;;;-10.64;56.14;101492.41;4967169;28;19937;-65
2023/01/11 11:34:45;;;;;;;;;;;;;;;-10.66;56.21;101481.06;4948800;28;20463;-65
2023/01/11 11:37:18;;;;;;;;;;;;;;;-10.60;56.21;101477.19;4970340;28;20032;-61
2023/01/11 11:39:47;;;;;;;;;;;;;;;-10.59;56.07;101486.84;4968711;28;19950;-64
2023/01/11 11:42:14;;;;;;;;;;;;;;;-10.62;56.43;101472.00;4967214;28;19973;-62
2023/01/11 11:44:40;;;;;;;;;;;;;;;-10.64;56.26;101478.31;4968325;28;19934;-62
2023/01/11 11:47:12;;;;;;;;;;;;;;;-10.65;56.41;101468.69;4968586;28;20321;-61
2023/01/11 11:49:41;;;;;;;;;;;;;;;-10.64;56.37;101459.81;4968458;28;19931;-65
2023/01/11 11:52:11;;;;;;;;;;;;;;;-10.68;56.45;101459.16;4965429;28;20464;-65
2023/01/11 11:54:42;;;;;;;;;;;;;;;-10.71;56.74;101467.25;4971911;28;19930;-65
2023/01/11 11:57:13;;;;;;;;;;;;;;;-10.74;56.88;101501.81;4981735;28;20004;-65
2023/01/11 11:59:43;;;;;;;;;;;;;;;-10.73;56.35;101464.72;4968287;28;19936;-65
2023/01/11 12:02:14;;;;;;;;;;;;;;;-10.66;56.77;101451.13;4967002;28;20394;-65
2023/01/11 12:04:47;;;;;;;;;;;;;;;-10.62;56.80;101440.25;4967259;28;19934;-63
2023/01/11 12:07:15;;;;;;;;;;;;;;;-10.56;56.76;101447.78;4970656;28;20328;-61
2023/01/11 12:09:43;;;;;;;;;;;;;;;-10.52;56.63;101442.34;4967564;28;19930;-61
2023/01/11 12:12:13;;;;;;;;;;;;;;;-10.49;56.58;101435.03;4966388;28;20036;-65
2023/01/11 12:14:39;;;;;;;;;;;;;;;-10.54;56.30;101453.00;4936010;28;20287;-65
2023/01/11 12:17:20;;;;;;;;;;;;;;;-10.51;56.37;101460.75;4966618;28;19937;-65
2023/01/11 12:19:47;;;;;;;;;;;;;;;-10.52;56.11;101474.91;4967214;28;20360;-65
2023/01/11 12:22:18;;;;;;;;;;;;;;;-10.56;56.12;101436.38;4966225;28;19938;-61
2023/01/11 12:24:44;;;;;;;;;;;;;;;-10.54;56.33;101439.78;4969908;28;19930;-61
2023/01/11 12:27:16;;;;;;;;;;;;;;;-10.58;56.44;101452.34;4951870;28;19937;-61
2023/01/11 12:29:48;;;;;;;;;;;;;;;-10.61;56.96;101431.38;4982626;28;19942;-61
2023/01/11 12:32:27;;;;;;;;;;;;;;;-10.61;56.54;101444.59;4961693;28;20036;-61
2023/01/11 12:35:01;;;;;;;;;;;;;;;-10.62;57.00;101436.75;4964948;28;19985;-60
2023/01/11 12:37:35;;;;;;;;;;;;;;;-10.57;56.61;101447.91;4965583;28;19941;-61
2023/01/11 12:40:09;;;;;;;;;;;;;;;-10.52;56.07;101455.56;4965498;28;19938;-61
2023/01/11 12:42:45;;;;;;;;;;;;;;;-10.47;56.36;101451.66;4966546;28;19937;-62
2023/01/11 12:45:15;;;;;;;;;;;;;;;-10.45;55.22;101439.22;4967188;28;19936;-61
2023/01/11 12:47:57;;;;;;;;;;;;;;;-10.48;55.46;101435.91;4965988;28;20029;-62
2023/01/11 12:50:25;;;;;;;;;;;;;;;-10.47;55.58;101448.19;4963663;28;19934;-62
2023/01/11 12:53:01;;;;;;;;;;;;;;;-10.45;55.10;101415.41;4980542;28;20443;-61
2023/01/11 12:55:32;;;;;;;;;;;;;;;-10.46;55.02;101434.84;4965411;28;19992;-61
2023/01/11 12:58:00;;;;;;;;;;;;;;;-10.47;54.77;101446.38;4964714;28;19940;-61
2023/01/11 13:00:36;;;;;;;;;;;;;;;-10.44;55.15;101411.81;4967252;28;20037;-62
2023/01/11 13:03:21;;;;;;;;;;;;;;;-10.44;55.05;101418.88;4969354;28;19930;-61
2023/01/11 13:05:54;;;;;;;;;;;;;;;-10.48;54.52;101412.09;4968654;28;19934;-62
2023/01/11 13:08:27;;;;;;;;;;;;;;;-10.50;55.07;101416.66;4967107;28;19941;-61
2023/01/11 13:10:57;;;;;;;;;;;;;;;-10.57;55.48;101435.53;4962943;28;19996;-61
2023/01/11 13:13:27;;;;;;;;;;;;;;;-10.54;55.86;101434.50;4962378;28;20155;-61